Terminal Aerodrome Forecast
Issued by NWS

Home | Current Version | Previous Version | Text Only | Print | Product List | Glossary On
Versions: 1 2 3 4 5 6 7 8 9 10 11 12 13 14 15 16 17 18 19 20 21 22 23 24 25 26 27 28 29 30 31 32 33 34 35 36 37 38 39 40 41 42 43 44 45 46
063
FTUS45 KSLC 221752
TAFENV
TAF
KENV 221752Z 2218/2318 05006KT P6SM VCSH SCT020 BKN040
     FM221900 12007KT 2SM -SN BR SCT007 BKN050
     FM230000 18006KT 5SM -RASN BKN050
     FM230600 VRB04KT P6SM VCSH SCT020 BKN040
     FM231100 06005KT P6SM VCSH SCT020 BKN030
     FM231300 31010KT 4SM -SN SCT020 BKN030
      AMD LTD TO CLD VIS AND WIND=

USA.gov is the U.S. government's official web portal to all federal, state and local government web resources and services.